Huvudsida
METAR-TAF:

METAR-TAF

Flygplatser :

Beirut Air Base

Beirut, Libanon

latitud: 33-49N, longitud: 035-29E, höjd: 29 m

Aktuellt väderrapport

Denna rapport gjordes för 56 minuter sedan, klockan 09:00 UTC
Vind 9 kt från väst
Temperatur 30°C
Fuktighet 59%
Tryck 1008 hPa
Sikt: 8000 m

METAR: OLBA 190900Z 26009KT 8000 SCT 027 30/21 Q1008 NOSIG

Tid: 12:56 (09:56 UTC)

Väderprognos

Denna rapport gjordes för 5 timmar och 56 minuter sedan, klockan 04:00 UTC
Prognos gäller från 19 kl. 06 UTC till 20 kl. 12 UTC
Vind 10 kt från sydväst
Sikt: 8000 m
Brutna moln på en höjd av 2600 ft
Blir
från 19 kl. 18 UTC till 19 kl. 21 UTC
Vind 10 kt från syd
Sikt 10 km eller mer
Spridda moln på en höjd av 2600 ft
Blir
från 20 kl. 06 UTC till 20 kl. 09 UTC
Vind 10 kt från sydväst
Sikt: 8000 m
Brutna moln på en höjd av 2600 ft

TAF: OLBA 190400Z 1906/2012 22010KT 8000 BKN026 BECMG 1918/1921 18010KT 9999 SCT026 BECMG 2006/2009 22010KT 8000 BKN026

Aktuella väderrapporter och prognoser från 4000 flygplatser (METAR- och TAF-rapporter).

De tillgängliga stationerna syns som gula och röda prickar på kartan.

För musen över prickarna för att se namnen på stationerna.

Klicka sedan för att få väderrapporter och prognoser.

För att ändra kartan: Klicka på de gröna knapparna med ett svart kors på för att zooma in; den gröna knappen med ett streck på för att zooma ut; eller på de gröna pilarna för angränsande kartor.


METAR-TAF: